Time;durP1;ratioP1;P1;durP2;ratioP2;P2;SDS_P1;SDS_P2;PMS_P1;PMS_P2;Temp;Humidity;BMP_temperature;BMP_pressure;BME280_temperature;BME280_humidity;BME280_pressure;Samples;Min_cycle;Max_cycle;Signal;HPM_P1;HPM_P2
2023/09/08 00:00:56;;;;;;;233.77;87.67;;;;;;;;;;4993969;28;20609;-46
2023/09/08 00:03:22;;;;;;;233.00;88.30;;;;;;;;;;4998626;28;20859;-46
2023/09/08 00:05:48;;;;;;;233.97;88.57;;;;;;;;;;4999482;28;20510;-46
2023/09/08 00:08:15;;;;;;;234.43;87.77;;;;;;;;;;5002299;28;20410;-47
2023/09/08 00:10:41;;;;;;;233.57;89.53;;;;;;;;;;4996676;28;20553;-46
2023/09/08 00:13:07;;;;;;;231.37;88.00;;;;;;;;;;4997970;28;20477;-47
2023/09/08 00:15:35;;;;;;;233.63;87.10;;;;;;;;;;5001002;28;21032;-45
2023/09/08 00:18:01;;;;;;;234.83;90.17;;;;;;;;;;5002666;28;20468;-46
2023/09/08 00:20:27;;;;;;;231.17;85.77;;;;;;;;;;5003331;28;20414;-47
2023/09/08 00:22:53;;;;;;;229.03;83.77;;;;;;;;;;5002760;28;20779;-45
2023/09/08 00:25:19;;;;;;;234.73;91.23;;;;;;;;;;5004461;28;20559;-45
2023/09/08 00:27:45;;;;;;;232.23;85.73;;;;;;;;;;5000350;28;20412;-45
2023/09/08 00:30:11;;;;;;;234.93;88.93;;;;;;;;;;4998305;28;20415;-45
2023/09/08 00:32:37;;;;;;;233.07;86.20;;;;;;;;;;5006521;28;20429;-46
2023/09/08 00:35:06;;;;;;;234.87;88.33;;;;;;;;;;5005192;28;20407;-45
2023/09/08 00:37:32;;;;;;;231.53;84.37;;;;;;;;;;4995619;28;20441;-45
2023/09/08 00:39:58;;;;;;;230.93;83.13;;;;;;;;;;5003432;28;20909;-45
2023/09/08 00:42:24;;;;;;;236.67;89.97;;;;;;;;;;5006179;28;20964;-46
2023/09/08 00:44:50;;;;;;;232.57;85.53;;;;;;;;;;5002525;28;20835;-45
2023/09/08 00:47:16;;;;;;;235.00;88.17;;;;;;;;;;5005192;28;20420;-46
2023/09/08 00:49:42;;;;;;;229.97;82.57;;;;;;;;;;5006610;28;20446;-46
2023/09/08 00:52:08;;;;;;;232.63;86.23;;;;;;;;;;5002769;28;20432;-46
2023/09/08 00:54:34;;;;;;;231.43;85.63;;;;;;;;;;5009893;28;20442;-47
2023/09/08 00:57:03;;;;;;;234.40;89.53;;;;;;;;;;5003073;28;20412;-47
2023/09/08 00:59:30;;;;;;;233.10;87.47;;;;;;;;;;5004427;28;20507;-46
2023/09/08 01:01:55;;;;;;;233.97;88.17;;;;;;;;;;5000855;28;20412;-46
2023/09/08 01:04:21;;;;;;;233.97;86.73;;;;;;;;;;5003462;28;20467;-45
2023/09/08 01:06:48;;;;;;;239.67;92.73;;;;;;;;;;5004668;28;20778;-46
2023/09/08 01:09:14;;;;;;;233.00;88.17;;;;;;;;;;5001311;28;20484;-47
2023/09/08 01:11:40;;;;;;;236.47;87.87;;;;;;;;;;5009336;28;20414;-46
2023/09/08 01:14:06;;;;;;;235.47;91.17;;;;;;;;;;5002466;28;20502;-47
2023/09/08 01:16:32;;;;;;;233.80;89.10;;;;;;;;;;5002899;28;20398;-46
2023/09/08 01:18:58;;;;;;;235.33;90.93;;;;;;;;;;5002740;28;20786;-46
2023/09/08 01:21:52;;;;;;;234.07;87.07;;;;;;;;;;5007227;28;20416;-46
2023/09/08 01:24:43;;;;;;;237.73;90.53;;;;;;;;;;5005494;28;20416;-46
2023/09/08 01:27:10;;;;;;;234.33;88.60;;;;;;;;;;5004160;28;20411;-46
2023/09/08 01:29:37;;;;;;;234.43;89.60;;;;;;;;;;4998638;28;20453;-45
2023/09/08 01:32:04;;;;;;;233.20;85.70;;;;;;;;;;5005342;28;20436;-46
2023/09/08 01:34:30;;;;;;;233.00;87.03;;;;;;;;;;5002367;28;20417;-47
2023/09/08 01:36:56;;;;;;;234.53;90.50;;;;;;;;;;5002062;28;20501;-46
2023/09/08 01:39:22;;;;;;;232.97;86.57;;;;;;;;;;5004306;28;20410;-46
2023/09/08 01:41:48;;;;;;;235.33;89.23;;;;;;;;;;5001241;28;20556;-47
2023/09/08 01:44:14;;;;;;;235.37;89.17;;;;;;;;;;5002072;28;20421;-46
2023/09/08 01:46:40;;;;;;;231.43;84.07;;;;;;;;;;5002248;28;20412;-47
2023/09/08 01:49:06;;;;;;;234.87;88.30;;;;;;;;;;5007060;28;20413;-46
2023/09/08 01:51:32;;;;;;;237.43;88.70;;;;;;;;;;5000693;28;20408;-46
2023/09/08 01:53:58;;;;;;;233.83;86.90;;;;;;;;;;4997326;28;20425;-46
2023/09/08 01:56:26;;;;;;;235.27;87.13;;;;;;;;;;5002039;28;20822;-46
2023/09/08 01:58:52;;;;;;;234.67;87.33;;;;;;;;;;5001889;28;20406;-46
2023/09/08 02:01:18;;;;;;;231.67;82.47;;;;;;;;;;5003312;28;20413;-46
2023/09/08 02:03:43;;;;;;;233.17;84.40;;;;;;;;;;5004637;28;20556;-46
2023/09/08 02:06:09;;;;;;;233.63;86.37;;;;;;;;;;5004970;28;20466;-46
2023/09/08 02:08:35;;;;;;;234.43;85.53;;;;;;;;;;4999491;28;20415;-46
2023/09/08 02:11:01;;;;;;;231.77;84.53;;;;;;;;;;4997740;28;20412;-47
2023/09/08 02:13:27;;;;;;;234.23;88.57;;;;;;;;;;5004109;28;20432;-47
2023/09/08 02:15:53;;;;;;;235.60;87.97;;;;;;;;;;5003461;28;20817;-46
2023/09/08 02:18:19;;;;;;;232.93;85.83;;;;;;;;;;5003329;28;20924;-45
2023/09/08 02:20:45;;;;;;;234.00;85.90;;;;;;;;;;5002877;28;20771;-46
2023/09/08 02:23:11;;;;;;;233.20;83.77;;;;;;;;;;5002947;28;20435;-45
2023/09/08 02:25:37;;;;;;;236.07;87.33;;;;;;;;;;4997678;28;20566;-46
2023/09/08 02:28:03;;;;;;;232.67;84.67;;;;;;;;;;5004716;28;20408;-45
2023/09/08 02:30:29;;;;;;;235.47;89.47;;;;;;;;;;5001712;28;20408;-47
2023/09/08 02:32:55;;;;;;;232.73;85.27;;;;;;;;;;5001169;28;20455;-46
2023/09/08 02:35:21;;;;;;;233.97;84.43;;;;;;;;;;5002964;28;20417;-45
2023/09/08 02:37:47;;;;;;;232.40;84.63;;;;;;;;;;5001278;28;20424;-46
2023/09/08 02:40:13;;;;;;;235.17;85.97;;;;;;;;;;5001388;28;20415;-47
2023/09/08 02:42:39;;;;;;;229.60;82.37;;;;;;;;;;5000772;28;20469;-46
2023/09/08 02:45:05;;;;;;;234.43;87.80;;;;;;;;;;5006206;28;20519;-47
2023/09/08 02:47:31;;;;;;;237.57;90.90;;;;;;;;;;4992007;28;20412;-46
2023/09/08 02:49:57;;;;;;;235.07;87.87;;;;;;;;;;4999263;28;20423;-46
2023/09/08 02:52:23;;;;;;;235.40;86.70;;;;;;;;;;5000973;28;20495;-45
2023/09/08 02:54:49;;;;;;;234.77;88.73;;;;;;;;;;5000802;28;20481;-46
2023/09/08 02:57:15;;;;;;;230.83;82.70;;;;;;;;;;5002169;28;20415;-45
2023/09/08 02:59:41;;;;;;;229.97;83.57;;;;;;;;;;5004700;28;20477;-45
2023/09/08 03:02:07;;;;;;;234.27;87.77;;;;;;;;;;4984196;28;20476;-45
2023/09/08 03:04:33;;;;;;;232.17;85.63;;;;;;;;;;4999218;28;20463;-46
2023/09/08 03:06:59;;;;;;;233.07;84.57;;;;;;;;;;4997152;28;20412;-45
2023/09/08 03:09:25;;;;;;;233.67;87.67;;;;;;;;;;5003214;28;20498;-46
2023/09/08 03:11:50;;;;;;;237.10;85.47;;;;;;;;;;4999112;28;20900;-46
2023/09/08 03:14:16;;;;;;;234.37;87.90;;;;;;;;;;5001908;28;20404;-45
2023/09/08 03:16:42;;;;;;;232.40;83.80;;;;;;;;;;5002468;28;20408;-47
2023/09/08 03:19:08;;;;;;;235.13;87.03;;;;;;;;;;5000363;28;20422;-45
2023/09/08 03:21:34;;;;;;;241.03;92.33;;;;;;;;;;5003651;28;20425;-45
2023/09/08 03:24:00;;;;;;;234.27;86.03;;;;;;;;;;5003694;28;20510;-46
2023/09/08 03:26:26;;;;;;;231.27;83.60;;;;;;;;;;5000950;28;20466;-46
2023/09/08 03:28:52;;;;;;;232.50;84.57;;;;;;;;;;5001395;28;20410;-45
2023/09/08 03:31:18;;;;;;;233.17;87.13;;;;;;;;;;5002017;28;20415;-46
2023/09/08 03:33:44;;;;;;;233.43;85.87;;;;;;;;;;5000351;28;20532;-46
2023/09/08 03:36:10;;;;;;;232.73;84.83;;;;;;;;;;5000872;28;20409;-46
2023/09/08 03:38:37;;;;;;;230.87;83.57;;;;;;;;;;5000623;28;20409;-45
2023/09/08 03:41:03;;;;;;;232.03;85.13;;;;;;;;;;5005482;28;20409;-46
2023/09/08 03:43:29;;;;;;;233.47;87.70;;;;;;;;;;4999003;28;20430;-46
2023/09/08 03:45:55;;;;;;;228.90;82.37;;;;;;;;;;4999078;28;20575;-45
2023/09/08 03:48:21;;;;;;;235.17;89.53;;;;;;;;;;5000840;28;20727;-47
2023/09/08 03:50:47;;;;;;;232.37;84.57;;;;;;;;;;5000288;28;20446;-46
2023/09/08 03:53:13;;;;;;;234.27;88.60;;;;;;;;;;4999263;28;20429;-46
2023/09/08 03:55:39;;;;;;;232.63;85.80;;;;;;;;;;5000097;28;20420;-45
2023/09/08 03:58:05;;;;;;;233.73;86.93;;;;;;;;;;5004066;28;20443;-46
2023/09/08 04:00:31;;;;;;;231.93;84.23;;;;;;;;;;4997644;28;20779;-46
2023/09/08 04:02:57;;;;;;;233.60;88.47;;;;;;;;;;4997010;28;20494;-45
2023/09/08 04:05:23;;;;;;;232.03;85.03;;;;;;;;;;5004532;28;20464;-46
2023/09/08 04:07:49;;;;;;;231.87;83.90;;;;;;;;;;5006915;28;20419;-46
2023/09/08 04:10:15;;;;;;;234.60;85.87;;;;;;;;;;5005174;28;20483;-46
2023/09/08 04:12:41;;;;;;;232.80;86.87;;;;;;;;;;5005932;28;20443;-46
2023/09/08 04:15:07;;;;;;;234.33;89.77;;;;;;;;;;5005759;28;20513;-45
2023/09/08 04:17:33;;;;;;;233.53;86.97;;;;;;;;;;4999979;28;20965;-46
2023/09/08 04:20:00;;;;;;;231.07;83.83;;;;;;;;;;5007006;28;20441;-46
2023/09/08 04:22:25;;;;;;;232.03;86.70;;;;;;;;;;5004104;28;20453;-45
2023/09/08 04:24:54;;;;;;;234.17;87.20;;;;;;;;;;5004627;28;20454;-45
2023/09/08 04:27:20;;;;;;;234.27;86.77;;;;;;;;;;5005475;28;20415;-46
2023/09/08 04:29:45;;;;;;;228.80;82.83;;;;;;;;;;5003698;28;20417;-46
2023/09/08 04:32:11;;;;;;;232.43;85.27;;;;;;;;;;5003715;28;20445;-45
2023/09/08 04:34:41;;;;;;;229.07;81.60;;;;;;;;;;5003653;28;20423;-45
2023/09/08 04:37:07;;;;;;;231.73;84.00;;;;;;;;;;5009076;28;20420;-46
2023/09/08 04:39:34;;;;;;;234.03;88.13;;;;;;;;;;5003062;28;20767;-45
2023/09/08 04:42:00;;;;;;;234.87;86.47;;;;;;;;;;5001445;28;20496;-45
2023/09/08 04:44:26;;;;;;;232.77;85.47;;;;;;;;;;5003708;28;20418;-45
2023/09/08 04:46:52;;;;;;;233.07;84.77;;;;;;;;;;5003226;28;20404;-46
2023/09/08 04:49:18;;;;;;;233.77;86.13;;;;;;;;;;5004874;28;20416;-47
2023/09/08 04:51:45;;;;;;;233.30;83.33;;;;;;;;;;5006565;28;20777;-46
2023/09/08 04:54:11;;;;;;;230.13;82.13;;;;;;;;;;5007020;28;20407;-46
2023/09/08 04:56:37;;;;;;;232.17;85.87;;;;;;;;;;5001579;28;20497;-46
2023/09/08 04:59:03;;;;;;;232.27;85.00;;;;;;;;;;4999327;28;20415;-45
2023/09/08 05:01:32;;;;;;;241.37;91.97;;;;;;;;;;5005866;28;20414;-46
2023/09/08 05:03:58;;;;;;;234.27;86.10;;;;;;;;;;5004666;28;20799;-47
2023/09/08 05:06:25;;;;;;;235.47;87.10;;;;;;;;;;5004640;28;20505;-45
2023/09/08 05:08:51;;;;;;;231.67;84.33;;;;;;;;;;5003580;28;20443;-45
2023/09/08 05:11:18;;;;;;;234.47;87.23;;;;;;;;;;5004497;28;20443;-46
2023/09/08 05:13:44;;;;;;;235.03;85.20;;;;;;;;;;4999999;28;20430;-46
2023/09/08 05:16:11;;;;;;;232.23;84.77;;;;;;;;;;5003383;28;21003;-45
2023/09/08 05:18:37;;;;;;;233.97;87.10;;;;;;;;;;5004065;28;20472;-46
2023/09/08 05:21:04;;;;;;;235.03;85.60;;;;;;;;;;5001619;28;20916;-45
2023/09/08 05:23:29;;;;;;;232.57;86.07;;;;;;;;;;5004206;28;20469;-45
2023/09/08 05:25:55;;;;;;;230.37;83.53;;;;;;;;;;5001976;28;20487;-46
2023/09/08 05:28:21;;;;;;;231.97;85.23;;;;;;;;;;5002592;28;20420;-45
2023/09/08 05:30:47;;;;;;;232.57;84.67;;;;;;;;;;5001807;28;20415;-45
2023/09/08 05:33:13;;;;;;;233.60;86.67;;;;;;;;;;5007213;28;20435;-46
2023/09/08 05:35:39;;;;;;;232.83;82.23;;;;;;;;;;5002516;28;20907;-45
2023/09/08 05:38:05;;;;;;;230.80;83.57;;;;;;;;;;4999802;28;20835;-46
2023/09/08 05:40:31;;;;;;;235.60;89.93;;;;;;;;;;5003294;28;20800;-46
2023/09/08 05:42:57;;;;;;;232.40;87.37;;;;;;;;;;5001853;28;20435;-45
2023/09/08 05:45:25;;;;;;;231.33;86.33;;;;;;;;;;5004262;28;20473;-45
2023/09/08 05:47:51;;;;;;;234.53;89.87;;;;;;;;;;5005068;28;20404;-45
2023/09/08 05:50:17;;;;;;;234.93;91.57;;;;;;;;;;5006268;28;20470;-46
2023/09/08 05:52:43;;;;;;;233.73;89.93;;;;;;;;;;5001393;28;20440;-47
2023/09/08 05:55:09;;;;;;;236.27;91.67;;;;;;;;;;5004325;28;20423;-46
2023/09/08 05:57:36;;;;;;;232.17;87.43;;;;;;;;;;5005249;28;20744;-45
2023/09/08 06:00:03;;;;;;;231.70;84.00;;;;;;;;;;5003410;28;20415;-45
2023/09/08 06:02:29;;;;;;;232.20;86.20;;;;;;;;;;5004816;28;20938;-46
2023/09/08 06:04:56;;;;;;;232.87;86.40;;;;;;;;;;5002490;28;20470;-47
2023/09/08 06:07:22;;;;;;;230.50;85.87;;;;;;;;;;5004313;28;20403;-46
2023/09/08 06:09:48;;;;;;;233.77;88.03;;;;;;;;;;4996861;28;20544;-46
2023/09/08 06:12:14;;;;;;;232.73;89.67;;;;;;;;;;5010164;28;20435;-45
2023/09/08 06:14:40;;;;;;;230.70;86.67;;;;;;;;;;5004321;28;20428;-45
2023/09/08 06:17:06;;;;;;;233.10;87.30;;;;;;;;;;5001201;28;20940;-46
2023/09/08 06:19:32;;;;;;;240.03;87.30;;;;;;;;;;5004156;28;20759;-46
2023/09/08 06:21:58;;;;;;;242.87;93.23;;;;;;;;;;5001408;28;20479;-45
2023/09/08 06:24:24;;;;;;;246.80;93.83;;;;;;;;;;5002249;28;20915;-46
2023/09/08 06:26:50;;;;;;;243.97;91.50;;;;;;;;;;5001214;28;20423;-45
2023/09/08 06:29:16;;;;;;;243.97;92.87;;;;;;;;;;5007407;28;20498;-46
2023/09/08 06:31:42;;;;;;;246.63;93.63;;;;;;;;;;5002303;28;20413;-46
2023/09/08 06:34:08;;;;;;;243.77;92.20;;;;;;;;;;4999440;28;20944;-46
2023/09/08 06:36:34;;;;;;;242.73;89.93;;;;;;;;;;5001872;28;20998;-46
2023/09/08 06:39:00;;;;;;;244.67;92.10;;;;;;;;;;5001052;28;20408;-46
2023/09/08 06:41:27;;;;;;;244.07;93.00;;;;;;;;;;5003691;28;20425;-46
2023/09/08 06:43:53;;;;;;;249.13;95.53;;;;;;;;;;5000343;28;20455;-45
2023/09/08 06:46:19;;;;;;;247.27;97.33;;;;;;;;;;4988677;28;20484;-47
2023/09/08 06:48:45;;;;;;;245.13;92.97;;;;;;;;;;5000983;28;20413;-46
2023/09/08 06:51:11;;;;;;;244.30;90.53;;;;;;;;;;5001131;28;20452;-45
2023/09/08 06:53:37;;;;;;;246.50;92.70;;;;;;;;;;5000079;28;20438;-46
2023/09/08 06:56:03;;;;;;;243.50;91.57;;;;;;;;;;5002341;28;20410;-46
2023/09/08 06:58:29;;;;;;;247.73;98.37;;;;;;;;;;4999830;28;20899;-45
2023/09/08 07:00:55;;;;;;;248.30;98.37;;;;;;;;;;4999781;28;20414;-46
2023/09/08 07:03:22;;;;;;;247.33;97.87;;;;;;;;;;5005692;28;20792;-46
2023/09/08 07:05:48;;;;;;;243.47;94.93;;;;;;;;;;5000635;28;20548;-47
2023/09/08 07:08:14;;;;;;;249.53;100.20;;;;;;;;;;5001735;28;20908;-46
2023/09/08 07:10:40;;;;;;;244.93;97.57;;;;;;;;;;5004890;28;20419;-46
2023/09/08 07:13:06;;;;;;;244.80;95.97;;;;;;;;;;5005101;28;20431;-45
2023/09/08 07:15:32;;;;;;;245.70;101.07;;;;;;;;;;4998455;28;20435;-46
2023/09/08 07:17:58;;;;;;;243.20;99.33;;;;;;;;;;4997636;28;20405;-46
2023/09/08 07:20:24;;;;;;;246.50;104.07;;;;;;;;;;5002933;28;20422;-46
2023/09/08 07:22:50;;;;;;;247.03;105.07;;;;;;;;;;5003100;28;20422;-47
2023/09/08 07:25:16;;;;;;;244.57;102.27;;;;;;;;;;5001776;28;20529;-46
2023/09/08 07:27:42;;;;;;;248.27;108.07;;;;;;;;;;5002908;28;20506;-46
2023/09/08 07:30:08;;;;;;;245.93;107.83;;;;;;;;;;5003012;28;20490;-46
2023/09/08 07:32:34;;;;;;;246.83;109.33;;;;;;;;;;4996868;28;20522;-45
2023/09/08 07:35:00;;;;;;;247.87;109.70;;;;;;;;;;5003642;28;20433;-46
2023/09/08 07:37:26;;;;;;;246.47;109.97;;;;;;;;;;5001349;28;20785;-47
2023/09/08 07:39:52;;;;;;;247.53;113.93;;;;;;;;;;4992203;28;20829;-46
2023/09/08 07:42:18;;;;;;;248.57;116.00;;;;;;;;;;5005736;28;20423;-46
2023/09/08 07:44:45;;;;;;;247.43;116.93;;;;;;;;;;5005014;28;21013;-46
2023/09/08 07:47:11;;;;;;;246.47;115.70;;;;;;;;;;5005467;28;20415;-46
2023/09/08 07:49:37;;;;;;;245.13;114.13;;;;;;;;;;5004193;28;20896;-46
2023/09/08 07:52:04;;;;;;;244.50;112.27;;;;;;;;;;5009517;28;20910;-46
2023/09/08 07:54:30;;;;;;;249.03;120.73;;;;;;;;;;5003840;28;20438;-46
2023/09/08 07:56:56;;;;;;;248.07;119.07;;;;;;;;;;5003457;28;20415;-46
2023/09/08 07:59:22;;;;;;;247.63;121.83;;;;;;;;;;5005303;28;20407;-46
2023/09/08 08:01:48;;;;;;;247.37;120.20;;;;;;;;;;5003744;28;20811;-46
2023/09/08 08:04:14;;;;;;;247.23;120.40;;;;;;;;;;5003702;28;20431;-46
2023/09/08 08:06:40;;;;;;;248.17;124.07;;;;;;;;;;5009082;28;20424;-47
2023/09/08 08:09:06;;;;;;;244.90;121.43;;;;;;;;;;5008483;28;20930;-46
2023/09/08 08:11:32;;;;;;;251.60;128.97;;;;;;;;;;5002232;28;20751;-46
2023/09/08 08:13:58;;;;;;;248.87;129.43;;;;;;;;;;5001384;28;20443;-46
2023/09/08 08:16:24;;;;;;;246.23;123.87;;;;;;;;;;5006101;28;20803;-46
2023/09/08 08:18:50;;;;;;;249.50;130.20;;;;;;;;;;5007015;28;20923;-47
2023/09/08 08:21:16;;;;;;;245.13;126.33;;;;;;;;;;5005633;28;20446;-47
2023/09/08 08:23:42;;;;;;;247.60;130.47;;;;;;;;;;5006539;28;20443;-45
2023/09/08 08:26:08;;;;;;;244.33;126.33;;;;;;;;;;5006648;28;20459;-47
2023/09/08 08:28:34;;;;;;;243.23;126.83;;;;;;;;;;5000995;28;20407;-47
2023/09/08 08:31:00;;;;;;;248.30;135.63;;;;;;;;;;4999358;28;20408;-46
2023/09/08 08:33:26;;;;;;;245.23;129.47;;;;;;;;;;5005717;28;20779;-47
2023/09/08 08:35:52;;;;;;;247.80;134.17;;;;;;;;;;5005331;28;20403;-48
2023/09/08 08:38:19;;;;;;;243.97;134.07;;;;;;;;;;5004748;28;20495;-48
2023/09/08 08:40:45;;;;;;;244.07;132.33;;;;;;;;;;5003157;28;20449;-48
2023/09/08 08:43:11;;;;;;;244.70;134.97;;;;;;;;;;5004707;28;20484;-48
2023/09/08 08:45:38;;;;;;;247.20;138.73;;;;;;;;;;4999502;28;20773;-46
2023/09/08 08:48:05;;;;;;;247.40;137.63;;;;;;;;;;4996879;28;20432;-47
2023/09/08 08:50:32;;;;;;;245.77;137.63;;;;;;;;;;5010621;28;20411;-46
2023/09/08 08:52:59;;;;;;;243.93;135.93;;;;;;;;;;5000918;28;20435;-47
2023/09/08 08:55:25;;;;;;;244.97;139.53;;;;;;;;;;5002300;28;20494;-46
2023/09/08 08:57:52;;;;;;;245.00;138.53;;;;;;;;;;5002470;28;20418;-46
2023/09/08 09:00:18;;;;;;;245.63;141.53;;;;;;;;;;5004492;28;20899;-46
2023/09/08 09:02:45;;;;;;;244.77;141.57;;;;;;;;;;5005916;28;20461;-47
2023/09/08 09:05:12;;;;;;;245.17;141.70;;;;;;;;;;5002258;28;20598;-47
2023/09/08 09:07:38;;;;;;;242.93;140.63;;;;;;;;;;5004644;28;20913;-46
2023/09/08 09:10:05;;;;;;;242.47;140.43;;;;;;;;;;5002749;28;20447;-46
2023/09/08 09:12:31;;;;;;;244.57;143.13;;;;;;;;;;5003719;28;20915;-47
2023/09/08 09:14:59;;;;;;;243.47;141.30;;;;;;;;;;5002446;28;20987;-47
2023/09/08 09:17:25;;;;;;;244.47;144.33;;;;;;;;;;5008742;28;20431;-46
2023/09/08 09:19:51;;;;;;;243.93;140.67;;;;;;;;;;5005181;28;20414;-46
2023/09/08 09:22:21;;;;;;;244.73;147.80;;;;;;;;;;5000349;28;20431;-46
2023/09/08 09:24:48;;;;;;;244.30;144.73;;;;;;;;;;5001346;28;20839;-47
2023/09/08 09:27:14;;;;;;;244.37;144.07;;;;;;;;;;5003590;28;20404;-46
2023/09/08 09:29:51;;;;;;;244.07;148.23;;;;;;;;;;5005852;28;20412;-46
2023/09/08 09:32:17;;;;;;;246.13;150.17;;;;;;;;;;4991702;28;20427;-47
2023/09/08 09:34:50;;;;;;;245.83;149.13;;;;;;;;;;4994105;28;20423;-47
2023/09/08 09:37:16;;;;;;;244.63;151.57;;;;;;;;;;4994199;28;20408;-46
2023/09/08 09:39:42;;;;;;;244.53;151.33;;;;;;;;;;4994073;28;20444;-46
2023/09/08 09:42:08;;;;;;;245.37;151.70;;;;;;;;;;4993990;28;20463;-46
2023/09/08 09:44:34;;;;;;;244.23;151.43;;;;;;;;;;4993850;28;20507;-46
2023/09/08 09:47:01;;;;;;;246.90;156.97;;;;;;;;;;4994251;28;20438;-46
2023/09/08 09:49:31;;;;;;;247.37;156.40;;;;;;;;;;4994076;28;20396;-46
2023/09/08 09:51:59;;;;;;;245.80;153.03;;;;;;;;;;4993767;28;20927;-46
2023/09/08 09:54:24;;;;;;;244.27;156.50;;;;;;;;;;4993723;28;20419;-47
2023/09/08 09:56:51;;;;;;;245.60;155.50;;;;;;;;;;4993875;28;20503;-47
2023/09/08 09:59:17;;;;;;;245.07;157.27;;;;;;;;;;4993707;28;20408;-46
2023/09/08 10:01:43;;;;;;;245.87;154.47;;;;;;;;;;4992958;28;20466;-47
2023/09/08 10:04:10;;;;;;;248.43;160.87;;;;;;;;;;4993226;28;20554;-47
2023/09/08 10:06:37;;;;;;;245.40;159.40;;;;;;;;;;4993531;28;20501;-46
2023/09/08 10:09:15;;;;;;;247.57;160.50;;;;;;;;;;4993640;28;20440;-46
2023/09/08 10:11:47;;;;;;;245.47;155.17;;;;;;;;;;4993456;28;20449;-46
2023/09/08 10:14:15;;;;;;;247.63;159.20;;;;;;;;;;4993122;28;20420;-47
2023/09/08 10:16:44;;;;;;;242.27;153.97;;;;;;;;;;4993449;28;20448;-46
2023/09/08 10:19:10;;;;;;;246.10;154.63;;;;;;;;;;4993232;28;20558;-46
2023/09/08 10:21:56;;;;;;;249.53;161.47;;;;;;;;;;4998837;28;20411;-46
2023/09/08 10:24:24;;;;;;;244.80;154.53;;;;;;;;;;5001939;28;20462;-47
2023/09/08 10:27:09;;;;;;;252.87;162.33;;;;;;;;;;5003691;28;20903;-46
2023/09/08 10:29:35;;;;;;;245.17;157.07;;;;;;;;;;4992525;28;20396;-46
2023/09/08 10:32:02;;;;;;;249.83;161.10;;;;;;;;;;4995041;28;20916;-47
2023/09/08 10:34:29;;;;;;;246.20;159.60;;;;;;;;;;5002201;28;20402;-47
2023/09/08 10:36:55;;;;;;;246.53;161.07;;;;;;;;;;5001580;28;20395;-46
2023/09/08 10:39:31;;;;;;;245.03;157.53;;;;;;;;;;5003073;28;20918;-47
2023/09/08 10:42:15;;;;;;;245.73;159.10;;;;;;;;;;4998887;28;20410;-46
2023/09/08 10:44:42;;;;;;;243.80;155.57;;;;;;;;;;4997426;28;20471;-46
2023/09/08 10:47:07;;;;;;;245.67;159.43;;;;;;;;;;5004083;28;20808;-47
2023/09/08 10:49:37;;;;;;;245.53;161.77;;;;;;;;;;4998171;28;20413;-47
2023/09/08 10:52:09;;;;;;;245.10;157.27;;;;;;;;;;4996217;28;20463;-46
2023/09/08 10:54:42;;;;;;;246.10;162.10;;;;;;;;;;4995925;28;20415;-47
2023/09/08 10:57:13;;;;;;;244.83;160.73;;;;;;;;;;5002235;28;20496;-47
2023/09/08 10:59:39;;;;;;;248.73;164.33;;;;;;;;;;5003659;28;20399;-47
2023/09/08 11:02:05;;;;;;;246.90;161.33;;;;;;;;;;5000328;28;20435;-47
2023/09/08 11:04:33;;;;;;;247.40;163.80;;;;;;;;;;4999064;28;20407;-47
2023/09/08 11:06:59;;;;;;;244.80;159.13;;;;;;;;;;4999838;28;20415;-47
2023/09/08 11:09:25;;;;;;;244.07;159.73;;;;;;;;;;5001369;28;20418;-47
2023/09/08 11:11:51;;;;;;;246.27;161.93;;;;;;;;;;5003297;28;20454;-48
2023/09/08 11:14:17;;;;;;;253.33;171.77;;;;;;;;;;4995341;28;20416;-48
2023/09/08 11:16:43;;;;;;;246.50;165.50;;;;;;;;;;4992301;28;20497;-47
2023/09/08 11:19:10;;;;;;;247.23;166.73;;;;;;;;;;4992390;28;20946;-46
2023/09/08 11:21:36;;;;;;;253.30;174.60;;;;;;;;;;4992465;28;20458;-47
2023/09/08 11:24:04;;;;;;;246.97;167.57;;;;;;;;;;4992174;28;20440;-46
2023/09/08 11:26:33;;;;;;;245.43;166.30;;;;;;;;;;4991996;28;20589;-46
2023/09/08 11:28:59;;;;;;;247.93;171.37;;;;;;;;;;4984450;28;20422;-46
2023/09/08 11:31:25;;;;;;;249.17;174.83;;;;;;;;;;4991990;28;20420;-47
2023/09/08 11:33:55;;;;;;;248.00;171.17;;;;;;;;;;4991382;28;20582;-46
2023/09/08 11:36:21;;;;;;;247.33;165.47;;;;;;;;;;4990904;28;20478;-46
2023/09/08 11:38:47;;;;;;;246.90;167.90;;;;;;;;;;4992037;28;20411;-47
2023/09/08 11:41:13;;;;;;;250.63;172.07;;;;;;;;;;4991813;28;20956;-46
2023/09/08 11:43:39;;;;;;;248.17;169.33;;;;;;;;;;4991041;28;21009;-47
2023/09/08 11:46:06;;;;;;;247.63;171.47;;;;;;;;;;4992088;28;20558;-46
2023/09/08 11:48:32;;;;;;;247.93;170.57;;;;;;;;;;4991966;28;20412;-47
2023/09/08 11:50:59;;;;;;;248.10;172.63;;;;;;;;;;4992054;28;20487;-46
2023/09/08 11:53:25;;;;;;;247.37;171.90;;;;;;;;;;4991749;28;20445;-47
2023/09/08 11:55:51;;;;;;;247.73;171.73;;;;;;;;;;4992138;28;20482;-47
2023/09/08 11:58:18;;;;;;;249.43;176.37;;;;;;;;;;4985086;28;20432;-46
2023/09/08 12:00:47;;;;;;;246.30;175.57;;;;;;;;;;4993196;28;20424;-46
2023/09/08 12:03:17;;;;;;;247.87;177.33;;;;;;;;;;4992283;28;20519;-46
2023/09/08 12:05:44;;;;;;;248.93;179.97;;;;;;;;;;4991820;28;20959;-46
2023/09/08 12:08:10;;;;;;;246.63;176.93;;;;;;;;;;4991903;28;20930;-47
2023/09/08 12:10:40;;;;;;;245.70;173.10;;;;;;;;;;4992093;28;20416;-46
2023/09/08 12:13:06;;;;;;;245.07;174.10;;;;;;;;;;4991683;28;20936;-46
2023/09/08 12:15:33;;;;;;;244.60;172.07;;;;;;;;;;4991697;28;20413;-46
2023/09/08 12:18:00;;;;;;;246.03;171.90;;;;;;;;;;4992133;28;20408;-47
2023/09/08 12:20:26;;;;;;;245.27;168.10;;;;;;;;;;4991952;28;20419;-46
2023/09/08 12:22:52;;;;;;;252.30;192.53;;;;;;;;;;4991525;28;20444;-46
2023/09/08 12:25:18;;;;;;;247.17;173.83;;;;;;;;;;4991958;28;20472;-46
2023/09/08 12:27:50;;;;;;;245.87;173.17;;;;;;;;;;4995865;28;20435;-46
2023/09/08 12:30:43;;;;;;;246.47;174.17;;;;;;;;;;4995324;28;20498;-46
2023/09/08 12:33:10;;;;;;;245.23;170.67;;;;;;;;;;4994736;28;20455;-46
2023/09/08 12:35:36;;;;;;;246.93;174.47;;;;;;;;;;4995121;28;20418;-47
2023/09/08 12:38:03;;;;;;;247.93;176.00;;;;;;;;;;4995202;28;20497;-46
2023/09/08 12:40:30;;;;;;;245.80;173.03;;;;;;;;;;4995394;28;20805;-45
2023/09/08 12:42:57;;;;;;;245.30;173.80;;;;;;;;;;5003994;28;20450;-46
2023/09/08 12:45:23;;;;;;;248.70;179.50;;;;;;;;;;5003797;28;20458;-47
2023/09/08 12:47:50;;;;;;;246.23;180.50;;;;;;;;;;4984661;28;20515;-46
2023/09/08 12:50:16;;;;;;;248.90;178.20;;;;;;;;;;5002776;28;20454;-46
2023/09/08 12:52:42;;;;;;;247.67;179.83;;;;;;;;;;5000309;28;20434;-46
2023/09/08 12:55:08;;;;;;;248.70;180.00;;;;;;;;;;4988954;28;20440;-46
2023/09/08 12:57:35;;;;;;;248.83;184.07;;;;;;;;;;5003536;28;20407;-47
2023/09/08 13:00:00;;;;;;;247.17;177.07;;;;;;;;;;5001377;28;21119;-46
2023/09/08 13:02:26;;;;;;;249.20;181.63;;;;;;;;;;5003592;28;20423;-45
2023/09/08 13:04:52;;;;;;;249.03;181.97;;;;;;;;;;5006371;28;20827;-45
2023/09/08 13:07:19;;;;;;;248.97;181.40;;;;;;;;;;5005498;28;20408;-45
2023/09/08 13:09:45;;;;;;;247.87;177.67;;;;;;;;;;5006768;28;20893;-44
2023/09/08 13:12:14;;;;;;;248.00;175.70;;;;;;;;;;5006633;28;20488;-44
2023/09/08 13:14:40;;;;;;;246.97;177.87;;;;;;;;;;5005900;28;20420;-44
2023/09/08 13:17:06;;;;;;;247.87;175.73;;;;;;;;;;5002925;28;20463;-45
2023/09/08 13:19:32;;;;;;;248.47;175.30;;;;;;;;;;5005901;28;20489;-44
2023/09/08 13:21:58;;;;;;;249.03;177.80;;;;;;;;;;5005913;28;20407;-45
2023/09/08 13:24:24;;;;;;;249.07;180.07;;;;;;;;;;5002070;28;20434;-45
2023/09/08 13:26:50;;;;;;;243.17;162.80;;;;;;;;;;5000300;28;20881;-44
2023/09/08 13:29:17;;;;;;;246.27;175.63;;;;;;;;;;5003229;28;20801;-45
2023/09/08 13:31:43;;;;;;;248.20;176.37;;;;;;;;;;5004462;28;20407;-44
2023/09/08 13:34:09;;;;;;;248.17;177.07;;;;;;;;;;5001011;28;20416;-45
2023/09/08 13:36:35;;;;;;;248.57;178.83;;;;;;;;;;5003301;28;20408;-45
2023/09/08 13:39:02;;;;;;;245.80;175.93;;;;;;;;;;5001639;28;20413;-45
2023/09/08 13:41:44;;;;;;;253.33;186.13;;;;;;;;;;5002502;28;20408;-45
2023/09/08 13:44:10;;;;;;;242.93;167.00;;;;;;;;;;5002778;28;20446;-45
2023/09/08 13:46:36;;;;;;;248.27;177.60;;;;;;;;;;5006427;28;20499;-44
2023/09/08 13:49:02;;;;;;;247.73;177.50;;;;;;;;;;5005415;28;20407;-44
2023/09/08 13:51:29;;;;;;;258.40;197.40;;;;;;;;;;4993040;28;20447;-45
2023/09/08 13:53:54;;;;;;;248.20;175.43;;;;;;;;;;4993765;28;20432;-45
2023/09/08 13:56:20;;;;;;;246.37;175.63;;;;;;;;;;4993946;28;20515;-44